createdAt,value
2022-09-27T00:00:46.073Z,8.15
2022-09-27T00:03:13.095Z,14.93
2022-09-27T00:05:40.586Z,15.15
2022-09-27T00:08:07.407Z,11.25
2022-09-27T00:10:34.147Z,12.63
2022-09-27T00:13:00.832Z,14.20
2022-09-27T00:15:27.501Z,11.38
2022-09-27T00:17:54.344Z,6.45
2022-09-27T00:20:21.562Z,10.13
2022-09-27T00:22:49.501Z,8.20
2022-09-27T00:25:16.700Z,14.02
2022-09-27T00:27:43.779Z,9.27
2022-09-27T00:30:11.140Z,9.60
2022-09-27T00:32:37.945Z,11.23
2022-09-27T00:35:05.066Z,11.95
2022-09-27T00:37:31.928Z,9.95
2022-09-27T00:39:58.834Z,8.30
2022-09-27T00:42:25.544Z,8.80
2022-09-27T00:45:14.890Z,6.20
2022-09-27T00:47:48.496Z,12.85
2022-09-27T00:50:36.371Z,5.78
2022-09-27T00:53:18.199Z,8.48
2022-09-27T00:56:08.678Z,8.55
2022-09-27T00:58:41.188Z,10.68
2022-09-27T01:01:13.836Z,10.18
2022-09-27T01:03:57.248Z,7.55
2022-09-27T01:06:24.101Z,8.23
2022-09-27T01:08:52.281Z,10.10
2022-09-27T01:11:51.688Z,10.10
2022-09-27T01:14:33.601Z,8.98
2022-09-27T01:17:18.672Z,6.72
2022-09-27T01:20:12.856Z,8.25
2022-09-27T01:22:51.600Z,8.55
2022-09-27T01:25:47.554Z,9.40
2022-09-27T01:28:46.492Z,9.65
2022-09-27T01:31:24.457Z,6.13
2022-09-27T01:34:14.326Z,6.10
2022-09-27T01:36:59.092Z,8.68
2022-09-27T01:39:45.087Z,8.93
2022-09-27T01:42:37.746Z,6.90
2022-09-27T01:47:42.858Z,8.00
2022-09-27T01:50:15.867Z,12.57
2022-09-27T01:52:46.427Z,8.57
2022-09-27T01:55:17.666Z,8.70
2022-09-27T01:57:51.093Z,7.18
2022-09-27T02:00:19.112Z,8.77
2022-09-27T02:03:00.349Z,9.20
2022-09-27T02:05:32.120Z,11.35
2022-09-27T02:08:06.139Z,6.65
2022-09-27T02:10:39.886Z,8.32
2022-09-27T02:13:30.668Z,6.40
2022-09-27T02:16:03.272Z,9.13
2022-09-27T02:18:39.712Z,6.28
2022-09-27T02:21:11.453Z,5.40
2022-09-27T02:23:51.204Z,9.07
2022-09-27T02:26:20.870Z,8.07
2022-09-27T02:28:59.530Z,8.52
2022-09-27T02:31:26.772Z,6.78
2022-09-27T02:33:58.258Z,7.80
2022-09-27T02:36:25.154Z,9.13
2022-09-27T02:38:52.120Z,9.30
2022-09-27T02:41:21.814Z,5.43
2022-09-27T02:44:05.681Z,6.60
2022-09-27T02:46:51.560Z,5.97
2022-09-27T02:49:20.496Z,7.07
2022-09-27T02:51:54.802Z,7.10
2022-09-27T02:54:32.599Z,6.15
2022-09-27T02:57:14.512Z,9.70
2022-09-27T03:00:10.587Z,7.53
2022-09-27T03:02:58.886Z,8.23
2022-09-27T03:05:30.263Z,5.95
2022-09-27T03:07:58.078Z,10.07
2022-09-27T03:10:27.344Z,11.13
2022-09-27T03:12:54.644Z,6.95
2022-09-27T03:15:21.348Z,6.15
2022-09-27T03:17:48.103Z,8.93
2022-09-27T03:20:14.736Z,7.18
2022-09-27T03:22:42.272Z,7.55
2022-09-27T03:25:09.622Z,8.75
2022-09-27T03:27:36.315Z,10.07
2022-09-27T03:30:03.306Z,8.75
2022-09-27T03:32:31.623Z,7.50
2022-09-27T03:34:58.415Z,8.05
2022-09-27T03:37:26.724Z,13.02
2022-09-27T03:39:53.502Z,9.02
2022-09-27T03:42:20.268Z,7.90
2022-09-27T03:44:47.054Z,9.00
2022-09-27T03:47:13.741Z,8.60
2022-09-27T03:49:40.436Z,11.02
2022-09-27T03:52:07.067Z,10.80
2022-09-27T03:54:33.884Z,8.90
2022-09-27T03:57:00.646Z,11.88
2022-09-27T03:59:27.457Z,11.80
2022-09-27T04:01:56.483Z,5.07
2022-09-27T04:04:23.850Z,13.98
2022-09-27T04:06:50.668Z,10.40
2022-09-27T04:09:17.394Z,10.25
2022-09-27T04:11:44.110Z,6.70
2022-09-27T04:14:13.063Z,11.15
2022-09-27T04:16:40.607Z,6.70
2022-09-27T04:19:08.495Z,11.35
2022-09-27T04:21:35.862Z,8.05
2022-09-27T04:24:02.789Z,7.00
2022-09-27T04:26:29.452Z,13.60
2022-09-27T04:28:56.186Z,5.50
2022-09-27T04:31:23.255Z,10.95
2022-09-27T04:33:50.001Z,10.10
2022-09-27T04:36:27.595Z,8.32
2022-09-27T04:38:55.723Z,9.02
2022-09-27T04:41:24.543Z,10.98
2022-09-27T04:43:58.937Z,8.00
2022-09-27T04:46:27.198Z,9.70
2022-09-27T04:48:53.854Z,10.70
2022-09-27T04:51:20.585Z,10.23
2022-09-27T04:53:48.070Z,12.90
2022-09-27T04:56:16.026Z,9.55
2022-09-27T04:58:42.996Z,8.40
2022-09-27T05:01:10.594Z,10.70
2022-09-27T05:03:37.669Z,17.35
2022-09-27T05:06:04.444Z,17.77
2022-09-27T05:08:31.224Z,11.25
2022-09-27T05:10:58.470Z,14.32
2022-09-27T05:13:26.488Z,14.55
2022-09-27T05:15:53.221Z,15.85
2022-09-27T05:18:19.933Z,17.85
2022-09-27T05:20:46.819Z,12.55
2022-09-27T05:23:13.655Z,12.93
2022-09-27T05:25:40.595Z,11.35
2022-09-27T05:28:07.335Z,11.90
2022-09-27T05:30:34.060Z,15.05
2022-09-27T05:33:00.826Z,8.32
2022-09-27T05:35:27.626Z,14.48
2022-09-27T05:37:56.053Z,9.65
2022-09-27T05:40:40.427Z,10.57
2022-09-27T05:43:09.126Z,8.88
2022-09-27T05:45:36.007Z,18.98
2022-09-27T05:48:03.297Z,10.70
2022-09-27T05:50:29.960Z,16.75
2022-09-27T05:52:56.723Z,16.33
2022-09-27T05:55:23.653Z,11.80
2022-09-27T05:58:04.910Z,12.40
2022-09-27T06:00:32.740Z,11.20
2022-09-27T06:03:06.674Z,11.32
2022-09-27T06:05:38.736Z,10.30
2022-09-27T06:08:11.905Z,12.15
2022-09-27T06:10:39.765Z,13.18
2022-09-27T06:13:15.755Z,15.95
2022-09-27T06:15:45.461Z,19.90
2022-09-27T06:18:16.202Z,13.82
2022-09-27T06:20:43.297Z,15.75
2022-09-27T06:23:15.207Z,14.15
2022-09-27T06:25:42.577Z,13.30
2022-09-27T06:28:10.834Z,18.80
2022-09-27T06:30:42.402Z,15.45
2022-09-27T06:33:16.789Z,16.33
2022-09-27T06:35:45.439Z,17.45
2022-09-27T06:38:16.968Z,13.63
2022-09-27T06:40:47.978Z,16.42
2022-09-27T06:43:20.520Z,16.08
2022-09-27T06:45:47.801Z,12.43
2022-09-27T06:48:17.463Z,16.70
2022-09-27T06:50:45.937Z,17.10
2022-09-27T06:53:14.856Z,14.18
2022-09-27T06:55:42.328Z,16.52
2022-09-27T06:58:29.697Z,13.05
2022-09-27T07:00:56.446Z,15.90
2022-09-27T07:03:23.953Z,14.05
2022-09-27T07:05:58.931Z,16.30
2022-09-27T07:08:28.821Z,13.30
2022-09-27T07:11:06.983Z,13.30
2022-09-27T07:13:37.332Z,17.25
2022-09-27T07:16:04.290Z,18.10
2022-09-27T07:18:31.184Z,17.25
2022-09-27T07:21:00.525Z,15.82
2022-09-27T07:23:30.497Z,13.48
2022-09-27T07:26:05.366Z,16.25
2022-09-27T07:28:32.516Z,16.48
2022-09-27T07:31:02.453Z,19.50
2022-09-27T07:33:30.869Z,14.80
2022-09-27T07:35:57.842Z,16.45
2022-09-27T07:38:24.557Z,16.27
2022-09-27T07:40:51.488Z,17.67
2022-09-27T07:43:19.630Z,14.15
2022-09-27T07:45:46.820Z,16.02
2022-09-27T07:48:16.534Z,21.70
2022-09-27T07:50:43.524Z,16.20
2022-09-27T07:53:13.869Z,13.27
2022-09-27T07:55:42.506Z,17.17
2022-09-27T07:58:11.638Z,17.38
2022-09-27T08:00:39.672Z,15.25
2022-09-27T08:03:16.226Z,15.00
2022-09-27T08:05:44.847Z,15.65
2022-09-27T08:08:12.034Z,14.93
2022-09-27T08:10:42.257Z,13.20
2022-09-27T08:13:09.808Z,16.75
2022-09-27T08:15:39.205Z,18.83
2022-09-27T08:18:10.865Z,16.50
2022-09-27T08:20:38.077Z,12.70
2022-09-27T08:23:04.875Z,19.17
2022-09-27T08:25:31.915Z,14.25
2022-09-27T08:28:00.592Z,13.88
2022-09-27T08:30:29.288Z,11.77
2022-09-27T08:33:01.328Z,14.68
2022-09-27T08:35:29.372Z,14.57
2022-09-27T08:37:59.072Z,13.77
2022-09-27T08:40:52.482Z,16.20
2022-09-27T08:43:19.176Z,16.60
2022-09-27T08:45:52.001Z,17.05
2022-09-27T08:48:19.082Z,12.68
2022-09-27T08:50:47.659Z,19.35
2022-09-27T08:53:14.270Z,12.25
2022-09-27T08:55:48.104Z,14.43
2022-09-27T08:58:26.784Z,17.95
2022-09-27T09:00:57.068Z,12.85
2022-09-27T09:03:28.138Z,12.77
2022-09-27T09:06:15.631Z,18.02
2022-09-27T09:08:57.566Z,11.30
2022-09-27T09:12:04.278Z,8.50
2022-09-27T09:14:49.835Z,10.10
2022-09-27T09:17:25.615Z,13.23
2022-09-27T09:20:17.017Z,12.20
2022-09-27T09:22:47.116Z,12.25
2022-09-27T09:25:33.939Z,12.50
2022-09-27T09:28:19.237Z,9.65
2022-09-27T09:30:55.218Z,16.63
2022-09-27T09:33:28.899Z,12.00
2022-09-27T09:36:00.380Z,11.80
2022-09-27T09:38:42.242Z,13.88
2022-09-27T09:41:53.816Z,16.63
2022-09-27T09:44:49.307Z,12.93
2022-09-27T09:47:24.664Z,12.23
2022-09-27T09:49:58.987Z,11.40
2022-09-27T09:52:32.943Z,11.85
2022-09-27T09:55:12.546Z,14.07
2022-09-27T09:58:02.587Z,11.88
2022-09-27T10:00:29.644Z,9.85
2022-09-27T10:03:00.162Z,10.40
2022-09-27T10:05:28.169Z,9.40
2022-09-27T10:08:00.683Z,7.20
2022-09-27T10:10:27.563Z,16.25
2022-09-27T10:12:56.272Z,13.40
2022-09-27T10:15:26.873Z,13.15
2022-09-27T10:17:58.175Z,9.82
2022-09-27T10:20:39.886Z,14.30
2022-09-27T10:23:22.286Z,8.60
2022-09-27T10:25:54.814Z,13.40
2022-09-27T10:28:44.081Z,12.38
2022-09-27T10:31:14.050Z,9.90
2022-09-27T10:33:55.678Z,10.73
2022-09-27T10:36:25.700Z,11.75
2022-09-27T10:38:54.811Z,12.43
2022-09-27T10:41:24.839Z,12.68
2022-09-27T10:43:52.876Z,11.93
2022-09-27T10:46:34.040Z,9.75
2022-09-27T10:49:28.358Z,10.30
2022-09-27T10:51:58.055Z,8.38
2022-09-27T10:54:31.775Z,10.30
2022-09-27T10:57:13.824Z,15.68
2022-09-27T10:59:45.076Z,8.48
2022-09-27T11:02:27.403Z,12.87
2022-09-27T11:05:15.623Z,15.00
2022-09-27T11:07:52.924Z,10.48
2022-09-27T11:10:31.157Z,10.38
2022-09-27T11:13:16.211Z,9.35
2022-09-27T11:16:16.621Z,6.75
2022-09-27T11:18:50.209Z,11.20
2022-09-27T11:21:55.515Z,11.13
2022-09-27T11:24:43.843Z,8.95
2022-09-27T11:27:28.988Z,10.77
2022-09-27T11:30:13.766Z,11.90
2022-09-27T11:32:52.674Z,8.70
2022-09-27T11:35:47.369Z,9.13
2022-09-27T11:38:51.725Z,8.63
2022-09-27T11:41:39.140Z,7.28
2022-09-27T11:44:34.394Z,7.95
2022-09-27T11:47:16.386Z,10.82
2022-09-27T11:50:20.697Z,8.75
2022-09-27T11:52:57.011Z,10.18
2022-09-27T11:56:01.875Z,11.13
2022-09-27T11:58:45.205Z,13.02
2022-09-27T12:01:20.918Z,10.15
2022-09-27T12:04:15.519Z,10.93
2022-09-27T12:06:58.855Z,12.25
2022-09-27T12:09:32.157Z,10.05
2022-09-27T12:12:16.210Z,7.88
2022-09-27T12:14:50.829Z,9.35
2022-09-27T12:17:21.868Z,9.10
2022-09-27T12:19:53.451Z,10.02
2022-09-27T12:22:53.906Z,10.88
2022-09-27T12:25:21.022Z,10.32
2022-09-27T12:28:00.286Z,9.13
2022-09-27T12:30:27.431Z,9.20
2022-09-27T12:33:04.618Z,4.97
2022-09-27T12:35:36.563Z,6.97
2022-09-27T12:38:34.925Z,6.10
2022-09-27T12:41:05.571Z,6.43
2022-09-27T12:43:32.391Z,5.38
2022-09-27T12:46:40.094Z,7.18
2022-09-27T12:49:28.164Z,7.72
2022-09-27T12:52:09.540Z,5.82
2022-09-27T12:54:46.815Z,5.87
2022-09-27T12:57:31.168Z,6.13
2022-09-27T13:00:18.781Z,8.68
2022-09-27T13:03:21.359Z,5.57
2022-09-27T13:06:29.840Z,5.70
2022-09-27T13:09:31.890Z,6.93
2022-09-27T13:12:05.165Z,6.40
2022-09-27T13:14:35.690Z,7.35
2022-09-27T13:17:02.357Z,5.57
2022-09-27T13:19:45.660Z,8.43
2022-09-27T13:22:27.377Z,8.63
2022-09-27T13:24:55.011Z,8.57
2022-09-27T13:27:27.705Z,6.75
2022-09-27T13:30:20.392Z,11.60
2022-09-27T13:33:11.267Z,10.05
2022-09-27T13:35:38.812Z,5.18
2022-09-27T13:38:22.532Z,13.57
2022-09-27T13:40:49.981Z,6.57
2022-09-27T13:43:43.706Z,6.80
2022-09-27T13:46:18.321Z,9.38
2022-09-27T13:48:55.492Z,9.55
2022-09-27T13:51:30.675Z,4.97
2022-09-27T13:54:07.911Z,9.25
2022-09-27T13:56:40.605Z,6.88
2022-09-27T13:59:37.892Z,7.00
2022-09-27T14:02:21.045Z,7.97
2022-09-27T14:04:51.443Z,7.22
2022-09-27T14:07:22.591Z,4.38
2022-09-27T14:09:53.710Z,7.60
2022-09-27T14:12:27.492Z,4.95
2022-09-27T14:14:56.620Z,6.20
2022-09-27T14:17:23.897Z,5.55
2022-09-27T14:19:50.787Z,5.85
2022-09-27T14:22:23.364Z,6.00
2022-09-27T14:24:51.629Z,6.47
2022-09-27T14:27:24.515Z,7.80
2022-09-27T14:29:57.639Z,8.30
2022-09-27T14:32:27.100Z,4.82
2022-09-27T14:35:33.593Z,6.72
2022-09-27T14:38:15.657Z,7.55
2022-09-27T14:40:58.571Z,8.10
2022-09-27T14:43:26.063Z,4.90
2022-09-27T14:46:31.888Z,8.13
2022-09-27T14:48:59.737Z,11.00
2022-09-27T14:51:29.690Z,6.43
2022-09-27T14:54:01.376Z,6.05
2022-09-27T14:56:30.427Z,8.27
2022-09-27T14:59:11.383Z,6.57
2022-09-27T15:01:40.089Z,9.40
2022-09-27T15:04:14.266Z,5.78
2022-09-27T15:06:42.163Z,5.82
2022-09-27T15:09:14.333Z,6.35
2022-09-27T15:11:42.672Z,6.10
2022-09-27T15:14:16.465Z,5.07
2022-09-27T15:16:46.231Z,5.15
2022-09-27T15:19:22.250Z,6.68
2022-09-27T15:21:48.881Z,6.03
2022-09-27T15:24:54.941Z,8.75
2022-09-27T15:27:26.284Z,6.95
2022-09-27T15:29:58.077Z,8.70
2022-09-27T15:32:29.219Z,6.65
2022-09-27T15:34:57.385Z,6.78
2022-09-27T15:37:33.928Z,9.57
2022-09-27T15:40:21.071Z,8.20
2022-09-27T15:42:59.602Z,8.02
2022-09-27T15:45:35.312Z,6.80
2022-09-27T15:48:29.077Z,6.43
2022-09-27T15:50:55.948Z,7.53
2022-09-27T15:53:34.701Z,9.23
2022-09-27T15:56:03.232Z,10.25
2022-09-27T15:58:31.601Z,8.02
2022-09-27T16:01:03.960Z,6.38
2022-09-27T16:03:30.655Z,8.68
2022-09-27T16:05:58.605Z,7.38
2022-09-27T16:08:27.419Z,5.57
2022-09-27T16:10:56.436Z,8.25
2022-09-27T16:13:26.808Z,5.72
2022-09-27T16:15:55.820Z,12.25
2022-09-27T16:18:23.753Z,9.88
2022-09-27T16:20:51.813Z,6.32
2022-09-27T16:23:18.472Z,6.72
2022-09-27T16:25:45.208Z,6.35
2022-09-27T16:28:13.221Z,4.95
2022-09-27T16:30:39.941Z,9.10
2022-09-27T16:33:06.543Z,8.45
2022-09-27T16:35:33.218Z,7.30
2022-09-27T16:37:59.918Z,6.20
2022-09-27T16:40:28.271Z,6.65
2022-09-27T16:42:54.955Z,7.90
2022-09-27T16:45:21.544Z,8.95
2022-09-27T16:47:48.272Z,7.68
2022-09-27T16:50:34.473Z,7.90
2022-09-27T16:53:01.285Z,7.95
2022-09-27T16:55:28.802Z,7.50
2022-09-27T16:57:58.742Z,7.45
2022-09-27T17:03:00.593Z,5.68
2022-09-27T17:05:27.197Z,9.35
2022-09-27T17:07:54.328Z,7.78
2022-09-27T17:10:22.563Z,4.57
2022-09-27T17:12:49.705Z,6.70
2022-09-27T17:15:17.442Z,5.15
2022-09-27T17:17:45.377Z,8.15
2022-09-27T17:20:12.079Z,8.13
2022-09-27T17:22:38.797Z,6.32
2022-09-27T17:25:05.736Z,8.80
2022-09-27T17:27:32.437Z,8.07
2022-09-27T17:29:59.155Z,6.05
2022-09-27T17:32:25.797Z,4.97
2022-09-27T17:34:52.446Z,6.43
2022-09-27T17:37:19.365Z,6.38
2022-09-27T17:39:46.050Z,6.25
2022-09-27T17:42:12.792Z,6.00
2022-09-27T17:44:39.526Z,5.93
2022-09-27T17:47:25.332Z,5.63
2022-09-27T17:50:10.391Z,8.80
2022-09-27T17:52:37.245Z,7.70
2022-09-27T17:55:05.558Z,9.93
2022-09-27T17:57:32.200Z,7.35
2022-09-27T18:00:00.209Z,9.18
2022-09-27T18:02:27.208Z,8.18
2022-09-27T18:04:53.935Z,9.55
2022-09-27T18:07:21.250Z,6.78
2022-09-27T18:09:48.146Z,10.05
2022-09-27T18:12:15.731Z,5.63
2022-09-27T18:14:43.536Z,10.30
2022-09-27T18:17:12.856Z,10.25
2022-09-27T18:19:39.916Z,6.45
2022-09-27T18:22:07.292Z,10.90
2022-09-27T18:24:34.048Z,12.43
2022-09-27T18:27:01.120Z,9.55
2022-09-27T18:29:28.901Z,8.30
2022-09-27T18:31:55.704Z,11.27
2022-09-27T18:34:23.647Z,8.52
2022-09-27T18:36:50.532Z,9.82
2022-09-27T18:39:21.162Z,7.40
2022-09-27T18:41:51.455Z,9.32
2022-09-27T18:44:19.099Z,10.90
2022-09-27T18:46:46.202Z,8.30
2022-09-27T18:49:14.937Z,9.82
2022-09-27T18:51:44.722Z,9.65
2022-09-27T18:54:18.334Z,11.68
2022-09-27T18:56:46.066Z,7.63
2022-09-27T18:59:13.283Z,16.98
2022-09-27T19:01:43.353Z,9.60
2022-09-27T19:04:12.927Z,12.10
2022-09-27T19:06:40.599Z,10.77
2022-09-27T19:09:08.251Z,10.20
2022-09-27T19:11:35.260Z,10.93
2022-09-27T19:14:02.257Z,8.77
2022-09-27T19:16:30.206Z,11.27
2022-09-27T19:18:57.063Z,8.63
2022-09-27T19:21:29.011Z,8.18
2022-09-27T19:23:56.421Z,13.23
2022-09-27T19:26:28.072Z,7.68
2022-09-27T19:28:54.796Z,9.63
2022-09-27T19:31:24.037Z,8.20
2022-09-27T19:33:56.157Z,11.75
2022-09-27T19:36:26.012Z,11.43
2022-09-27T19:38:53.604Z,8.70
2022-09-27T19:41:20.455Z,10.30
2022-09-27T19:43:51.876Z,7.97
2022-09-27T19:46:21.426Z,9.10
2022-09-27T19:48:49.909Z,9.57
2022-09-27T19:51:22.142Z,7.10
2022-09-27T19:56:16.357Z,10.23
2022-09-27T19:58:43.441Z,8.27
2022-09-27T20:01:13.228Z,9.63
2022-09-27T20:03:42.091Z,9.70
2022-09-27T20:06:19.076Z,11.02
2022-09-27T20:08:51.830Z,11.07
2022-09-27T20:11:23.831Z,9.25
2022-09-27T20:13:53.112Z,10.88
2022-09-27T20:16:22.601Z,7.32
2022-09-27T20:18:59.187Z,8.48
2022-09-27T20:21:29.209Z,11.57
2022-09-27T20:23:57.416Z,13.98
2022-09-27T20:26:26.094Z,9.77
2022-09-27T20:28:55.277Z,9.43
2022-09-27T20:31:24.449Z,7.45
2022-09-27T20:33:51.811Z,11.75
2022-09-27T20:36:26.214Z,9.00
2022-09-27T20:39:05.746Z,8.18
2022-09-27T20:41:38.263Z,9.93
2022-09-27T20:44:07.522Z,8.70
2022-09-27T20:46:35.023Z,9.02
2022-09-27T20:49:04.523Z,11.40
2022-09-27T20:51:34.086Z,13.00
2022-09-27T20:54:09.519Z,14.25
2022-09-27T20:56:42.608Z,9.90
2022-09-27T20:59:24.080Z,9.02
2022-09-27T21:01:54.247Z,17.33
2022-09-27T21:04:23.006Z,9.07
2022-09-27T21:06:54.530Z,11.20
2022-09-27T21:09:31.157Z,13.85
2022-09-27T21:12:02.063Z,11.45
2022-09-27T21:14:32.427Z,10.88
2022-09-27T21:17:02.166Z,12.75
2022-09-27T21:19:34.437Z,13.90
2022-09-27T21:22:04.769Z,11.90
2022-09-27T21:24:31.376Z,17.10
2022-09-27T21:26:58.257Z,13.75
2022-09-27T21:29:25.525Z,13.57
2022-09-27T21:31:52.178Z,13.02
2022-09-27T21:34:18.772Z,9.85
2022-09-27T21:36:45.603Z,15.77
2022-09-27T21:39:12.247Z,11.70
2022-09-27T21:41:39.299Z,13.73
2022-09-27T21:44:06.509Z,15.40
2022-09-27T21:46:33.770Z,12.90
2022-09-27T21:49:04.256Z,15.63
2022-09-27T21:51:39.861Z,13.15
2022-09-27T21:54:09.107Z,14.18
2022-09-27T21:56:38.800Z,11.77
2022-09-27T21:59:07.428Z,11.00
2022-09-27T22:01:35.212Z,15.25
2022-09-27T22:04:05.485Z,13.70
2022-09-27T22:06:37.813Z,12.50
2022-09-27T22:09:07.295Z,13.52
2022-09-27T22:11:38.148Z,15.40
2022-09-27T22:14:07.439Z,14.85
2022-09-27T22:16:41.903Z,10.00
2022-09-27T22:19:15.505Z,11.30
2022-09-27T22:21:44.162Z,17.08
2022-09-27T22:24:18.109Z,12.07
2022-09-27T22:26:54.830Z,16.23
2022-09-27T22:29:23.908Z,10.35
2022-09-27T22:31:54.098Z,13.20
2022-09-27T22:34:29.601Z,10.98
2022-09-27T22:37:00.833Z,11.68
2022-09-27T22:39:30.769Z,19.25
2022-09-27T22:41:58.047Z,11.90
2022-09-27T22:44:24.852Z,12.00
2022-09-27T22:46:52.114Z,9.20
2022-09-27T22:49:20.167Z,12.93
2022-09-27T22:51:47.560Z,15.10
2022-09-27T22:54:16.234Z,12.18
2022-09-27T22:56:46.633Z,13.15
2022-09-27T22:59:15.363Z,13.00
2022-09-27T23:01:44.984Z,12.77
2022-09-27T23:04:36.933Z,14.23
2022-09-27T23:07:04.081Z,14.15
2022-09-27T23:09:32.138Z,10.90
2022-09-27T23:12:04.368Z,10.27
2022-09-27T23:14:31.898Z,12.60
2022-09-27T23:16:58.808Z,13.07
2022-09-27T23:19:26.451Z,12.02
2022-09-27T23:21:53.144Z,8.65
2022-09-27T23:24:19.680Z,10.35
2022-09-27T23:27:06.454Z,14.65
2022-09-27T23:29:33.056Z,13.60
2022-09-27T23:32:00.747Z,11.25
2022-09-27T23:34:27.544Z,10.95
2022-09-27T23:36:54.306Z,14.77
2022-09-27T23:39:21.177Z,11.93
2022-09-27T23:41:48.264Z,14.48
2022-09-27T23:44:15.664Z,12.20
2022-09-27T23:46:44.960Z,11.93
2022-09-27T23:49:14.203Z,9.07
2022-09-27T23:51:45.538Z,9.15
2022-09-27T23:54:12.689Z,10.63
2022-09-27T23:56:39.400Z,7.25
2022-09-27T23:59:06.201Z,12.73
